Time;durP1;ratioP1;P1;durP2;ratioP2;P2;SDS_P1;SDS_P2;PMS_P1;PMS_P2;Temp;Humidity;BMP_temperature;BMP_pressure;BME280_temperature;BME280_humidity;BME280_pressure;Samples;Min_cycle;Max_cycle;Signal;HPM_P1;HPM_P2
2023/06/08 00:00:41;;;;;;;4.30;3.80;;;;;;;;;;6266642;28;20009;-72
2023/06/08 00:03:43;;;;;;;4.30;3.90;;;;;;;;;;6259159;28;20029;-72
2023/06/08 00:06:44;;;;;;;3.78;3.47;;;;;;;;;;6267859;28;20121;-72
2023/06/08 00:09:44;;;;;;;5.47;3.70;;;;;;;;;;6269968;28;20017;-71
2023/06/08 00:12:45;;;;;;;5.50;3.20;;;;;;;;;;6270935;28;20013;-71
2023/06/08 00:15:46;;;;;;;4.97;3.37;;;;;;;;;;6269173;28;20029;-71
2023/06/08 00:18:46;;;;;;;3.90;3.30;;;;;;;;;;6269426;28;20021;-72
2023/06/08 00:21:48;;;;;;;4.37;3.30;;;;;;;;;;6267895;28;20216;-72
2023/06/08 00:24:48;;;;;;;3.42;2.95;;;;;;;;;;6270584;28;20013;-72
2023/06/08 00:27:49;;;;;;;4.03;3.47;;;;;;;;;;6267701;28;20056;-71
2023/06/08 00:30:49;;;;;;;5.07;3.53;;;;;;;;;;6268429;28;20013;-71
2023/06/08 00:33:49;;;;;;;3.35;3.05;;;;;;;;;;6252983;28;20538;-73
2023/06/08 00:36:50;;;;;;;4.03;3.23;;;;;;;;;;6262111;28;20489;-71
2023/06/08 00:39:50;;;;;;;3.40;3.10;;;;;;;;;;6268261;28;20132;-72
2023/06/08 00:42:50;;;;;;;3.77;3.47;;;;;;;;;;6268263;28;20057;-71
2023/06/08 00:45:51;;;;;;;3.70;3.30;;;;;;;;;;6269125;28;20083;-71
2023/06/08 00:48:52;;;;;;;4.95;3.40;;;;;;;;;;6267860;28;20021;-72
2023/06/08 00:51:52;;;;;;;3.95;3.35;;;;;;;;;;6270546;28;20120;-70
2023/06/08 00:54:54;;;;;;;4.10;3.40;;;;;;;;;;6269808;28;20080;-70
2023/06/08 00:57:54;;;;;;;3.92;3.53;;;;;;;;;;6266754;28;20483;-71
2023/06/08 01:00:59;;;;;;;3.70;3.30;;;;;;;;;;6265496;28;20024;-70
2023/06/08 01:04:05;;;;;;;3.88;3.03;;;;;;;;;;6265905;28;20138;-71
2023/06/08 01:07:19;;;;;;;4.72;3.45;;;;;;;;;;6269373;28;20028;-71
2023/06/08 01:10:23;;;;;;;3.60;3.30;;;;;;;;;;6265292;28;20086;-72
2023/06/08 01:13:29;;;;;;;4.22;3.28;;;;;;;;;;6266788;28;20405;-72
2023/06/08 01:16:32;;;;;;;3.63;3.33;;;;;;;;;;6267803;28;20417;-72
2023/06/08 01:19:36;;;;;;;3.85;3.55;;;;;;;;;;6267001;28;20160;-73
2023/06/08 01:22:56;;;;;;;5.43;3.67;;;;;;;;;;6266098;28;20016;-72
2023/06/08 01:25:57;;;;;;;3.53;3.22;;;;;;;;;;6269448;28;20063;-71
2023/06/08 01:28:58;;;;;;;3.33;3.03;;;;;;;;;;6265706;28;20425;-71
2023/06/08 01:31:58;;;;;;;4.80;4.23;;;;;;;;;;6267444;28;20492;-70
2023/06/08 01:34:59;;;;;;;4.47;3.17;;;;;;;;;;6265996;28;20031;-71
2023/06/08 01:38:03;;;;;;;5.13;3.38;;;;;;;;;;6267965;28;20382;-71
2023/06/08 01:41:09;;;;;;;4.63;3.92;;;;;;;;;;6268963;28;20044;-71
2023/06/08 01:44:13;;;;;;;3.65;3.38;;;;;;;;;;6266203;28;20020;-71
2023/06/08 01:47:15;;;;;;;5.10;3.53;;;;;;;;;;6267226;28;20090;-71
2023/06/08 01:50:15;;;;;;;4.93;3.67;;;;;;;;;;6267085;28;20467;-71
2023/06/08 01:53:16;;;;;;;5.43;3.83;;;;;;;;;;6266276;28;20083;-70
2023/06/08 01:56:16;;;;;;;3.75;3.35;;;;;;;;;;6265577;28;20047;-70
2023/06/08 01:59:16;;;;;;;3.80;3.20;;;;;;;;;;6266149;28;20031;-72
2023/06/08 02:02:17;;;;;;;3.57;3.07;;;;;;;;;;6266798;28;20074;-70
2023/06/08 02:05:18;;;;;;;3.70;3.40;;;;;;;;;;6265912;28;20021;-70
2023/06/08 02:08:18;;;;;;;4.30;3.90;;;;;;;;;;6264713;28;20112;-69
2023/06/08 02:11:18;;;;;;;5.47;4.33;;;;;;;;;;6263667;28;20401;-69
2023/06/08 02:14:19;;;;;;;3.93;3.57;;;;;;;;;;6268235;28;20061;-69
2023/06/08 02:17:25;;;;;;;3.42;3.13;;;;;;;;;;6264713;28;20041;-69
2023/06/08 02:20:26;;;;;;;5.45;3.40;;;;;;;;;;6265601;28;20029;-69
2023/06/08 02:23:26;;;;;;;3.90;3.60;;;;;;;;;;6264950;28;20102;-69
2023/06/08 02:26:26;;;;;;;3.57;3.27;;;;;;;;;;6265808;28;20096;-68
2023/06/08 02:29:27;;;;;;;3.77;3.47;;;;;;;;;;6265827;28;20050;-69
2023/06/08 02:32:30;;;;;;;;;;;;;;;;;;6267128;28;20025;-70
2023/06/08 02:35:30;;;;;;;4.35;3.25;;;;;;;;;;6264708;28;19955;-69
2023/06/08 02:38:30;;;;;;;4.27;3.63;;;;;;;;;;6262330;28;20028;-70
2023/06/08 02:41:31;;;;;;;4.88;4.38;;;;;;;;;;6261428;28;20266;-71
2023/06/08 02:44:31;;;;;;;5.00;4.20;;;;;;;;;;6257791;28;20133;-71
2023/06/08 02:47:31;;;;;;;5.37;4.83;;;;;;;;;;6267293;28;20021;-71
2023/06/08 02:50:31;;;;;;;5.03;4.30;;;;;;;;;;6268079;28;20036;-70
2023/06/08 02:53:32;;;;;;;5.17;4.67;;;;;;;;;;6265517;28;20033;-70
2023/06/08 02:56:32;;;;;;;5.83;4.97;;;;;;;;;;6265614;28;20102;-71
2023/06/08 02:59:33;;;;;;;5.70;5.17;;;;;;;;;;6264079;28;20280;-70
2023/06/08 03:02:33;;;;;;;7.53;5.10;;;;;;;;;;6264671;28;20021;-72
2023/06/08 03:05:34;;;;;;;5.60;5.07;;;;;;;;;;6266170;28;20446;-71
2023/06/08 03:08:36;;;;;;;6.07;4.90;;;;;;;;;;6265927;28;20044;-69
2023/06/08 03:11:36;;;;;;;6.00;5.25;;;;;;;;;;6262760;28;20438;-71
2023/06/08 03:14:38;;;;;;;7.13;5.50;;;;;;;;;;6271408;28;20152;-73
2023/06/08 03:17:38;;;;;;;7.00;5.68;;;;;;;;;;6266932;28;20104;-71
2023/06/08 03:20:40;;;;;;;6.90;5.77;;;;;;;;;;6265493;28;20400;-70
2023/06/08 03:23:40;;;;;;;9.75;6.20;;;;;;;;;;6263422;28;20641;-70
2023/06/08 03:26:41;;;;;;;7.10;5.70;;;;;;;;;;6265750;28;20017;-71
2023/06/08 03:29:41;;;;;;;6.30;5.70;;;;;;;;;;6261285;28;20021;-70
2023/06/08 03:32:48;;;;;;;6.70;6.07;;;;;;;;;;6260365;28;20096;-70
2023/06/08 03:35:49;;;;;;;7.20;5.78;;;;;;;;;;6261308;28;20029;-70
2023/06/08 03:38:49;;;;;;;7.00;5.33;;;;;;;;;;6268581;28;20513;-72
2023/06/08 03:41:49;;;;;;;6.27;4.80;;;;;;;;;;6268697;28;20148;-71
2023/06/08 03:44:50;;;;;;;5.90;5.38;;;;;;;;;;6269715;28;20085;-70
2023/06/08 03:47:50;;;;;;;5.80;5.20;;;;;;;;;;6270987;28;20536;-70
2023/06/08 03:50:51;;;;;;;6.33;5.23;;;;;;;;;;6273674;28;20040;-71
2023/06/08 03:53:52;;;;;;;5.93;5.32;;;;;;;;;;6281985;28;20103;-71
2023/06/08 03:56:52;;;;;;;5.67;5.07;;;;;;;;;;6278538;28;20028;-71
2023/06/08 03:59:52;;;;;;;6.13;5.53;;;;;;;;;;6267950;28;20029;-70
2023/06/08 04:02:53;;;;;;;5.10;4.60;;;;;;;;;;6270917;28;20017;-70
2023/06/08 04:05:53;;;;;;;5.32;4.88;;;;;;;;;;6272198;28;20062;-70
2023/06/08 04:08:53;;;;;;;5.18;4.68;;;;;;;;;;6266551;28;20658;-69
2023/06/08 04:11:54;;;;;;;5.67;5.07;;;;;;;;;;6269946;28;20525;-69
2023/06/08 04:14:54;;;;;;;5.85;4.90;;;;;;;;;;6277271;28;20025;-70
2023/06/08 04:17:55;;;;;;;6.03;5.30;;;;;;;;;;6272253;28;20444;-70
2023/06/08 04:20:55;;;;;;;5.00;4.60;;;;;;;;;;6268032;28;20037;-70
2023/06/08 04:23:55;;;;;;;5.33;4.87;;;;;;;;;;6271156;28;20267;-70
2023/06/08 04:26:56;;;;;;;5.50;5.00;;;;;;;;;;6272086;28;20013;-72
2023/06/08 04:29:57;;;;;;;5.05;4.63;;;;;;;;;;6267935;28;20457;-70
2023/06/08 04:32:57;;;;;;;5.82;5.22;;;;;;;;;;6272986;28;20031;-70
2023/06/08 04:35:57;;;;;;;5.90;4.87;;;;;;;;;;6270331;28;20025;-71
2023/06/08 04:38:58;;;;;;;6.13;5.03;;;;;;;;;;6268383;28;20026;-72
2023/06/08 04:41:58;;;;;;;5.50;5.00;;;;;;;;;;6270970;28;20021;-72
2023/06/08 04:45:00;;;;;;;5.78;4.85;;;;;;;;;;6272407;28;20012;-71
2023/06/08 04:48:00;;;;;;;5.45;4.95;;;;;;;;;;6269058;28;20452;-71
2023/06/08 04:51:02;;;;;;;6.97;4.70;;;;;;;;;;6273338;28;20017;-71
2023/06/08 04:54:04;;;;;;;4.03;3.72;;;;;;;;;;6269566;28;20362;-71
2023/06/08 04:57:08;;;;;;;5.25;4.75;;;;;;;;;;6267296;28;20485;-71
2023/06/08 05:00:10;;;;;;;5.25;4.80;;;;;;;;;;6268005;28;20053;-70
2023/06/08 05:03:10;;;;;;;;;;;;;;;;;;6264070;28;20025;-71
2023/06/08 05:06:10;;;;;;;4.60;4.20;;;;;;;;;;6269852;28;19916;-71
2023/06/08 05:09:12;;;;;;;4.53;4.13;;;;;;;;;;6263700;28;20092;-71
2023/06/08 05:12:12;;;;;;;5.75;4.55;;;;;;;;;;6268648;28;20123;-72
2023/06/08 05:15:12;;;;;;;4.43;4.03;;;;;;;;;;6269177;28;20389;-71
2023/06/08 05:18:13;;;;;;;;;;;;;;;;;;6268492;28;20036;-71
2023/06/08 05:21:13;;;;;;;3.88;3.58;;;;;;;;;;6266466;28;20346;-72
2023/06/08 05:24:13;;;;;;;;;;;;;;;;;;6264300;28;20017;-69
2023/06/08 05:27:13;;;;;;;3.63;3.33;;;;;;;;;;6259189;28;20370;-70
2023/06/08 05:30:13;;;;;;;;;;;;;;;;;;6266063;28;20415;-70
2023/06/08 05:33:13;;;;;;;4.00;3.60;;;;;;;;;;6257970;28;19998;-69
2023/06/08 05:36:14;;;;;;;;;;;;;;;;;;6265720;28;20128;-69
2023/06/08 05:39:14;;;;;;;4.20;3.80;;;;;;;;;;6265888;28;20407;-70
2023/06/08 05:42:14;;;;;;;;;;;;;;;;;;6268134;28;20531;-70
2023/06/08 05:45:16;;;;;;;4.10;3.80;;;;;;;;;;6261086;28;19908;-71
2023/06/08 05:48:16;;;;;;;4.50;4.13;;;;;;;;;;6267002;28;20454;-68
2023/06/08 05:51:16;;;;;;;;;;;;;;;;;;6264766;28;20044;-68
2023/06/08 05:54:17;;;;;;;4.25;3.85;;;;;;;;;;6263803;28;19909;-68
2023/06/08 05:57:17;;;;;;;4.30;3.90;;;;;;;;;;6270080;28;20017;-70
2023/06/08 06:00:17;;;;;;;;;;;;;;;;;;6262976;28;20279;-69
2023/06/08 06:03:19;;;;;;;4.00;3.63;;;;;;;;;;6259076;28;19912;-70
2023/06/08 06:06:19;;;;;;;4.50;4.05;;;;;;;;;;6261687;28;20082;-70
2023/06/08 06:09:20;;;;;;;;;;;;;;;;;;6258575;28;20025;-70
2023/06/08 06:12:21;;;;;;;3.90;3.60;;;;;;;;;;6263480;28;19960;-72
2023/06/08 06:15:21;;;;;;;4.25;3.90;;;;;;;;;;6259963;28;20080;-71
2023/06/08 06:18:21;;;;;;;4.77;4.30;;;;;;;;;;6259027;28;20033;-71
2023/06/08 06:21:21;;;;;;;5.00;4.50;;;;;;;;;;6265021;28;20032;-70
2023/06/08 06:24:22;;;;;;;4.50;4.10;;;;;;;;;;6268123;28;20036;-71
2023/06/08 06:27:22;;;;;;;;;;;;;;;;;;6247669;28;20263;-71
2023/06/08 06:30:22;;;;;;;3.93;3.63;;;;;;;;;;6260202;28;19909;-71
2023/06/08 06:33:22;;;;;;;4.90;4.40;;;;;;;;;;6262013;28;20092;-71
2023/06/08 06:36:23;;;;;;;6.17;5.60;;;;;;;;;;6261170;28;20272;-72
2023/06/08 06:39:23;;;;;;;5.20;4.78;;;;;;;;;;6262215;28;20036;-72
2023/06/08 06:42:24;;;;;;;4.97;4.40;;;;;;;;;;6262227;28;20032;-69
2023/06/08 06:45:25;;;;;;;5.27;4.03;;;;;;;;;;6263373;28;20534;-72
2023/06/08 06:48:25;;;;;;;4.78;4.32;;;;;;;;;;6258638;28;20134;-70
2023/06/08 06:51:25;;;;;;;4.97;4.07;;;;;;;;;;6261628;28;20021;-70
2023/06/08 06:54:26;;;;;;;4.50;4.10;;;;;;;;;;6258472;28;20157;-71
2023/06/08 06:57:28;;;;;;;3.97;3.67;;;;;;;;;;6258981;28;20024;-69
2023/06/08 07:00:31;;;;;;;5.60;3.97;;;;;;;;;;6256430;28;20075;-69
2023/06/08 07:03:33;;;;;;;4.45;4.03;;;;;;;;;;6255138;28;20430;-70
2023/06/08 07:06:33;;;;;;;4.57;4.13;;;;;;;;;;6253853;28;20063;-70
2023/06/08 07:09:33;;;;;;;4.57;4.18;;;;;;;;;;6260137;28;20029;-72
2023/06/08 07:12:34;;;;;;;5.40;4.35;;;;;;;;;;6261806;28;20043;-69
2023/06/08 07:15:34;;;;;;;4.60;4.20;;;;;;;;;;6264363;28;20403;-71
2023/06/08 07:18:34;;;;;;;5.22;4.65;;;;;;;;;;6262336;28;20456;-69
2023/06/08 07:21:38;;;;;;;4.70;4.30;;;;;;;;;;6263096;28;20466;-68
2023/06/08 07:24:38;;;;;;;4.70;4.30;;;;;;;;;;6264105;28;20029;-68
2023/06/08 07:27:38;;;;;;;5.10;4.70;;;;;;;;;;6264026;28;20020;-67
2023/06/08 07:30:39;;;;;;;5.28;4.57;;;;;;;;;;6261439;28;20119;-67
2023/06/08 07:33:39;;;;;;;4.80;4.40;;;;;;;;;;6266259;28;20032;-65
2023/06/08 07:36:39;;;;;;;4.75;4.35;;;;;;;;;;6263507;28;20025;-67
2023/06/08 07:39:39;;;;;;;4.72;4.32;;;;;;;;;;6261472;28;20074;-67
2023/06/08 07:42:41;;;;;;;5.20;4.80;;;;;;;;;;6262530;28;20264;-67
2023/06/08 07:45:41;;;;;;;5.90;5.40;;;;;;;;;;6264116;28;20317;-66
2023/06/08 07:48:41;;;;;;;4.93;4.53;;;;;;;;;;6266264;28;20028;-67
2023/06/08 07:51:43;;;;;;;6.03;5.50;;;;;;;;;;6266009;28;20032;-66
2023/06/08 07:54:43;;;;;;;5.85;5.35;;;;;;;;;;6262447;28;20056;-66
2023/06/08 07:57:44;;;;;;;5.83;5.23;;;;;;;;;;6261593;28;20028;-66
2023/06/08 08:00:44;;;;;;;6.20;5.60;;;;;;;;;;6258761;28;20387;-67
2023/06/08 08:03:44;;;;;;;5.93;5.33;;;;;;;;;;6262013;28;20104;-66
2023/06/08 08:06:45;;;;;;;5.43;4.93;;;;;;;;;;6260958;28;20021;-66
2023/06/08 08:09:45;;;;;;;5.78;5.28;;;;;;;;;;6260650;28;20024;-66
2023/06/08 08:12:45;;;;;;;5.43;5.00;;;;;;;;;;6258526;28;20021;-66
2023/06/08 08:15:45;;;;;;;5.43;4.93;;;;;;;;;;6255604;28;20021;-67
2023/06/08 08:18:46;;;;;;;4.63;4.23;;;;;;;;;;6266408;28;20043;-66
2023/06/08 08:21:46;;;;;;;5.23;4.50;;;;;;;;;;6265640;28;20021;-66
2023/06/08 08:24:46;;;;;;;5.33;4.83;;;;;;;;;;6253639;28;20022;-67
2023/06/08 08:27:46;;;;;;;5.33;4.83;;;;;;;;;;6260754;28;20039;-66
2023/06/08 08:30:47;;;;;;;4.83;4.37;;;;;;;;;;6260931;28;20096;-65
2023/06/08 08:33:47;;;;;;;4.60;4.20;;;;;;;;;;6262961;28;20272;-66
2023/06/08 08:36:47;;;;;;;4.80;4.40;;;;;;;;;;6264283;28;20028;-67
2023/06/08 08:39:47;;;;;;;5.33;4.83;;;;;;;;;;6267070;28;20407;-67
2023/06/08 08:43:00;;;;;;;5.38;4.88;;;;;;;;;;6259271;28;20489;-66
2023/06/08 08:46:01;;;;;;;4.85;4.38;;;;;;;;;;6265007;28;20021;-68
2023/06/08 08:49:04;;;;;;;5.45;4.95;;;;;;;;;;6264520;28;20444;-66
2023/06/08 08:52:08;;;;;;;6.53;5.90;;;;;;;;;;6261164;28;20029;-65
2023/06/08 08:55:08;;;;;;;7.13;6.43;;;;;;;;;;6258965;28;20017;-65
2023/06/08 08:58:10;;;;;;;9.07;8.13;;;;;;;;;;6261046;28;20032;-66
2023/06/08 09:01:11;;;;;;;10.10;9.05;;;;;;;;;;6257142;28;20454;-65
2023/06/08 09:04:11;;;;;;;10.68;9.57;;;;;;;;;;6260478;28;20339;-70
2023/06/08 09:07:16;;;;;;;10.33;9.43;;;;;;;;;;6256738;28;20021;-71
2023/06/08 09:10:21;;;;;;;9.82;8.82;;;;;;;;;;6260848;28;20348;-69
2023/06/08 09:13:21;;;;;;;12.30;9.98;;;;;;;;;;6263224;28;20043;-68
2023/06/08 09:16:22;;;;;;;13.93;9.77;;;;;;;;;;6262269;28;20029;-71
2023/06/08 09:19:22;;;;;;;10.20;8.75;;;;;;;;;;6260948;28;20271;-71
2023/06/08 09:22:28;;;;;;;10.60;9.40;;;;;;;;;;6267144;28;20040;-71
2023/06/08 09:25:36;;;;;;;10.95;9.95;;;;;;;;;;6262754;28;20017;-73
2023/06/08 09:28:37;;;;;;;10.07;9.18;;;;;;;;;;6266673;28;20091;-72
2023/06/08 09:31:48;;;;;;;10.98;9.73;;;;;;;;;;6263879;28;20021;-70
2023/06/08 09:34:53;;;;;;;10.52;9.32;;;;;;;;;;6257129;28;20036;-70
2023/06/08 09:37:54;;;;;;;11.10;9.80;;;;;;;;;;6260146;28;20033;-71
2023/06/08 09:41:10;;;;;;;10.60;9.60;;;;;;;;;;6253752;28;20025;-65
2023/06/08 09:44:17;;;;;;;9.65;8.77;;;;;;;;;;6263428;28;20143;-67
2023/06/08 09:47:25;;;;;;;10.27;9.38;;;;;;;;;;6260436;28;20021;-63
2023/06/08 09:50:25;;;;;;;9.77;8.88;;;;;;;;;;6259555;28;20064;-67
2023/06/08 09:53:32;;;;;;;9.33;8.53;;;;;;;;;;6262414;28;20377;-67
2023/06/08 09:56:32;;;;;;;8.93;8.07;;;;;;;;;;6263607;28;20283;-72
2023/06/08 09:59:37;;;;;;;8.18;7.45;;;;;;;;;;6256090;28;20490;-72
2023/06/08 10:02:40;;;;;;;8.27;7.47;;;;;;;;;;6254746;28;20120;-72
2023/06/08 10:05:43;;;;;;;8.43;7.63;;;;;;;;;;6258844;28;20032;-72
2023/06/08 10:08:45;;;;;;;8.30;7.50;;;;;;;;;;6255158;28;20088;-72
2023/06/08 10:11:46;;;;;;;7.75;7.07;;;;;;;;;;6254729;28;20032;-72
2023/06/08 10:14:47;;;;;;;7.60;6.85;;;;;;;;;;6262936;28;20048;-73
2023/06/08 10:17:49;;;;;;;8.10;6.78;;;;;;;;;;6260494;28;20025;-69
2023/06/08 10:20:50;;;;;;;8.25;7.40;;;;;;;;;;6258736;28;20037;-68
2023/06/08 10:23:50;;;;;;;8.40;7.30;;;;;;;;;;6259431;28;20075;-66
2023/06/08 10:26:51;;;;;;;9.52;7.65;;;;;;;;;;6262456;28;20029;-68
2023/06/08 10:29:55;;;;;;;8.50;7.70;;;;;;;;;;6265287;28;20035;-69
2023/06/08 10:33:07;;;;;;;9.30;8.40;;;;;;;;;;6266245;28;20029;-71
2023/06/08 10:36:08;;;;;;;9.52;8.63;;;;;;;;;;6262442;28;20111;-72
2023/06/08 10:39:10;;;;;;;9.60;8.73;;;;;;;;;;6262054;28;20025;-71
2023/06/08 10:42:16;;;;;;;10.65;9.73;;;;;;;;;;6257287;28;20025;-71
2023/06/08 10:45:28;;;;;;;9.73;8.90;;;;;;;;;;6262457;28;20032;-71
2023/06/08 10:48:37;;;;;;;9.27;8.38;;;;;;;;;;6260740;28;20032;-71
2023/06/08 10:51:43;;;;;;;11.38;8.95;;;;;;;;;;6263726;28;20104;-71
2023/06/08 10:54:46;;;;;;;9.80;8.80;;;;;;;;;;6259332;28;20040;-71
2023/06/08 10:57:52;;;;;;;10.60;9.35;;;;;;;;;;6259062;28;20171;-71
2023/06/08 11:01:04;;;;;;;9.55;8.52;;;;;;;;;;6254665;28;20021;-69
2023/06/08 11:04:05;;;;;;;10.05;9.05;;;;;;;;;;6256651;28;20088;-71
2023/06/08 11:07:06;;;;;;;10.63;9.52;;;;;;;;;;6258059;28;20203;-71
2023/06/08 11:10:06;;;;;;;10.50;9.38;;;;;;;;;;6260216;28;20532;-71
2023/06/08 11:13:08;;;;;;;11.20;10.07;;;;;;;;;;6261180;28;20094;-72
2023/06/08 11:16:08;;;;;;;10.45;9.35;;;;;;;;;;6262825;28;20098;-68
2023/06/08 11:19:08;;;;;;;;;;;;;;;;;;6262442;28;20116;-68
2023/06/08 11:22:08;;;;;;;10.00;8.63;;;;;;;;;;6263268;28;20278;-68
2023/06/08 11:25:08;;;;;;;;;;;;;;;;;;6259917;28;20100;-68
2023/06/08 11:28:10;;;;;;;10.55;9.43;;;;;;;;;;6262344;28;20326;-68
2023/06/08 11:31:10;;;;;;;11.55;10.45;;;;;;;;;;6255689;28;20100;-68
2023/06/08 11:34:15;;;;;;;;;;;;;;;;;;6250440;28;20025;-68
2023/06/08 11:37:18;;;;;;;10.77;9.70;;;;;;;;;;6257471;28;19916;-69
2023/06/08 11:40:19;;;;;;;13.30;11.90;;;;;;;;;;6251844;28;20043;-69
2023/06/08 11:43:19;;;;;;;;;;;;;;;;;;6249166;28;20040;-69
2023/06/08 11:46:20;;;;;;;12.48;10.98;;;;;;;;;;6241746;28;19913;-68
2023/06/08 11:49:20;;;;;;;;;;;;;;;;;;6250935;28;20577;-70
2023/06/08 11:52:24;;;;;;;11.35;10.18;;;;;;;;;;6245366;28;19913;-67
2023/06/08 11:55:25;;;;;;;13.10;11.88;;;;;;;;;;6248630;28;20557;-64
2023/06/08 11:58:27;;;;;;;13.82;12.27;;;;;;;;;;6248356;28;20022;-68
2023/06/08 12:01:28;;;;;;;13.95;12.55;;;;;;;;;;6247752;28;20028;-67
2023/06/08 12:04:33;;;;;;;12.73;11.43;;;;;;;;;;6254715;28;20021;-69
2023/06/08 12:07:33;;;;;;;13.05;11.77;;;;;;;;;;6255480;28;20696;-69
2023/06/08 12:10:38;;;;;;;13.20;11.85;;;;;;;;;;6255803;28;20036;-69
2023/06/08 12:13:39;;;;;;;13.10;11.88;;;;;;;;;;6253745;28;20017;-68
2023/06/08 12:16:43;;;;;;;13.73;12.07;;;;;;;;;;6254780;28;20030;-68
2023/06/08 12:19:46;;;;;;;12.70;11.50;;;;;;;;;;6247874;28;20653;-69
2023/06/08 12:22:46;;;;;;;13.13;11.82;;;;;;;;;;6249756;28;20047;-68
2023/06/08 12:25:46;;;;;;;12.60;11.40;;;;;;;;;;6249344;28;20017;-69
2023/06/08 12:28:47;;;;;;;11.33;10.43;;;;;;;;;;6246781;28;20412;-67
2023/06/08 12:31:47;;;;;;;11.07;10.02;;;;;;;;;;6250693;28;20715;-67
2023/06/08 12:34:47;;;;;;;10.60;9.70;;;;;;;;;;6245934;28;20032;-68
2023/06/08 12:37:50;;;;;;;9.37;8.57;;;;;;;;;;6251607;28;20083;-68
2023/06/08 12:40:52;;;;;;;10.05;9.23;;;;;;;;;;6253873;28;20348;-68
2023/06/08 12:43:52;;;;;;;9.13;8.25;;;;;;;;;;6260290;28;20104;-65
2023/06/08 12:46:53;;;;;;;8.57;7.83;;;;;;;;;;6254028;28;20362;-69
2023/06/08 12:49:53;;;;;;;8.23;7.40;;;;;;;;;;6253113;28;20299;-68
2023/06/08 12:52:53;;;;;;;8.52;7.72;;;;;;;;;;6248661;28;20021;-68
2023/06/08 12:55:54;;;;;;;8.90;8.03;;;;;;;;;;6254714;28;20045;-69
2023/06/08 12:58:54;;;;;;;9.07;8.27;;;;;;;;;;6252588;28;20014;-70
2023/06/08 13:01:54;;;;;;;8.27;7.57;;;;;;;;;;6254101;28;20310;-69
2023/06/08 13:04:54;;;;;;;9.10;8.30;;;;;;;;;;6246315;28;20024;-67
2023/06/08 13:08:03;;;;;;;7.97;7.20;;;;;;;;;;6256959;28;20278;-69
2023/06/08 13:11:03;;;;;;;8.05;7.30;;;;;;;;;;6239486;28;20021;-73
2023/06/08 13:14:03;;;;;;;7.65;6.95;;;;;;;;;;6249708;28;20446;-69
2023/06/08 13:17:04;;;;;;;9.20;7.33;;;;;;;;;;6255280;28;20378;-68
2023/06/08 13:20:05;;;;;;;8.50;7.75;;;;;;;;;;6247851;28;20052;-70
2023/06/08 13:23:05;;;;;;;7.40;6.78;;;;;;;;;;6249221;28;20025;-70
2023/06/08 13:26:05;;;;;;;7.75;7.05;;;;;;;;;;6258716;28;20418;-69
2023/06/08 13:29:06;;;;;;;6.90;6.30;;;;;;;;;;6249067;28;20181;-69
2023/06/08 13:32:07;;;;;;;7.20;6.50;;;;;;;;;;6251568;28;20036;-70
2023/06/08 13:35:07;;;;;;;6.80;6.15;;;;;;;;;;6251714;28;20036;-69
2023/06/08 13:38:07;;;;;;;7.25;6.32;;;;;;;;;;6247546;28;20021;-69
2023/06/08 13:41:09;;;;;;;7.27;6.40;;;;;;;;;;6252610;28;20044;-69
2023/06/08 13:44:09;;;;;;;6.47;5.88;;;;;;;;;;6256401;28;20017;-67
2023/06/08 13:47:09;;;;;;;6.57;6.07;;;;;;;;;;6248192;28;20052;-68
2023/06/08 13:50:09;;;;;;;6.70;6.13;;;;;;;;;;6250803;28;20052;-68
2023/06/08 13:53:10;;;;;;;6.97;6.43;;;;;;;;;;6255078;28;20013;-69
2023/06/08 13:56:10;;;;;;;6.57;5.97;;;;;;;;;;6257200;28;20053;-70
2023/06/08 13:59:11;;;;;;;7.50;6.60;;;;;;;;;;6258916;28;20063;-73
2023/06/08 14:02:11;;;;;;;7.15;6.53;;;;;;;;;;6252508;28;20116;-67
2023/06/08 14:05:11;;;;;;;7.33;6.63;;;;;;;;;;6250541;28;20159;-68
2023/06/08 14:08:11;;;;;;;6.83;6.13;;;;;;;;;;6244712;28;20031;-68
2023/06/08 14:11:12;;;;;;;5.83;5.33;;;;;;;;;;6249788;28;20116;-67
2023/06/08 14:14:12;;;;;;;4.63;4.23;;;;;;;;;;6254580;28;20025;-68
2023/06/08 14:17:12;;;;;;;3.27;3.00;;;;;;;;;;6252134;28;20140;-66
2023/06/08 14:20:12;;;;;;;2.60;2.40;;;;;;;;;;6248287;28;20105;-69
2023/06/08 14:23:13;;;;;;;2.70;2.47;;;;;;;;;;6250695;28;20021;-70
2023/06/08 14:26:14;;;;;;;2.75;2.28;;;;;;;;;;6246386;28;20491;-70
2023/06/08 14:29:14;;;;;;;2.50;2.30;;;;;;;;;;6253498;28;20013;-71
2023/06/08 14:32:15;;;;;;;2.63;2.20;;;;;;;;;;6249145;28;20087;-70
2023/06/08 14:35:15;;;;;;;2.40;2.20;;;;;;;;;;6251981;28;20278;-69
2023/06/08 14:38:15;;;;;;;2.80;2.58;;;;;;;;;;6246618;28;20276;-70
2023/06/08 14:41:15;;;;;;;2.70;2.33;;;;;;;;;;6248262;28;20064;-71
2023/06/08 14:44:17;;;;;;;3.55;2.45;;;;;;;;;;6250334;28;20308;-73
2023/06/08 14:47:18;;;;;;;2.95;2.42;;;;;;;;;;6250445;28;20482;-73
2023/06/08 14:50:18;;;;;;;2.95;2.60;;;;;;;;;;6251327;28;20044;-73
2023/06/08 14:53:20;;;;;;;3.13;2.83;;;;;;;;;;6246035;28;20038;-73
2023/06/08 14:56:20;;;;;;;4.25;3.00;;;;;;;;;;6247093;28;20486;-73
2023/06/08 14:59:20;;;;;;;4.83;2.57;;;;;;;;;;6252713;28;20032;-73
2023/06/08 15:02:20;;;;;;;4.90;2.92;;;;;;;;;;6244302;28;20294;-73
2023/06/08 15:05:21;;;;;;;4.22;3.10;;;;;;;;;;6250045;28;20104;-73
2023/06/08 15:08:21;;;;;;;4.88;3.15;;;;;;;;;;6256171;28;20067;-72
2023/06/08 15:11:21;;;;;;;3.33;3.00;;;;;;;;;;6250817;28;20025;-72
2023/06/08 15:14:22;;;;;;;4.35;3.58;;;;;;;;;;6243720;28;20044;-73
2023/06/08 15:17:22;;;;;;;4.30;3.90;;;;;;;;;;6247461;28;20107;-73
2023/06/08 15:20:22;;;;;;;3.63;3.33;;;;;;;;;;6252363;28;20375;-73
2023/06/08 15:23:22;;;;;;;3.93;3.20;;;;;;;;;;6250090;28;20276;-73
2023/06/08 15:26:23;;;;;;;5.22;3.80;;;;;;;;;;6252528;28;20278;-72
2023/06/08 15:29:23;;;;;;;3.93;3.63;;;;;;;;;;6248070;28;20455;-72
2023/06/08 15:32:23;;;;;;;4.15;3.75;;;;;;;;;;6247660;28;20726;-72
2023/06/08 15:35:24;;;;;;;3.92;3.60;;;;;;;;;;6246724;28;20033;-72
2023/06/08 15:38:24;;;;;;;4.20;3.80;;;;;;;;;;6253640;28;20033;-71
2023/06/08 15:41:25;;;;;;;4.55;4.00;;;;;;;;;;6244459;28;20501;-72
2023/06/08 15:44:25;;;;;;;3.72;3.42;;;;;;;;;;6255776;28;20025;-72
2023/06/08 15:47:25;;;;;;;4.03;3.73;;;;;;;;;;6250320;28;20033;-73
2023/06/08 15:50:25;;;;;;;4.97;4.47;;;;;;;;;;6251759;28;20325;-71
2023/06/08 15:53:26;;;;;;;4.53;4.00;;;;;;;;;;6247405;28;20275;-71
2023/06/08 15:56:26;;;;;;;4.70;4.17;;;;;;;;;;6248191;28;20111;-71
2023/06/08 15:59:27;;;;;;;5.97;4.22;;;;;;;;;;6252847;28;20307;-72
2023/06/08 16:02:27;;;;;;;5.47;4.50;;;;;;;;;;6255522;28;20116;-71
2023/06/08 16:05:27;;;;;;;4.33;3.93;;;;;;;;;;6238591;28;20533;-73
2023/06/08 16:08:28;;;;;;;5.00;4.50;;;;;;;;;;6253281;28;20349;-72
2023/06/08 16:11:28;;;;;;;5.28;4.32;;;;;;;;;;6256774;28;20327;-71
2023/06/08 16:14:28;;;;;;;4.32;3.92;;;;;;;;;;6254126;28;20021;-71
2023/06/08 16:17:28;;;;;;;4.30;3.90;;;;;;;;;;6251971;28;20056;-70
2023/06/08 16:20:29;;;;;;;4.50;4.03;;;;;;;;;;6245529;28;20279;-69
2023/06/08 16:23:29;;;;;;;4.40;4.00;;;;;;;;;;6251215;28;21021;-71
2023/06/08 16:26:30;;;;;;;4.07;3.67;;;;;;;;;;6246793;28;20601;-73
2023/06/08 16:29:30;;;;;;;4.57;3.85;;;;;;;;;;6248811;28;20049;-70
2023/06/08 16:32:30;;;;;;;4.15;3.80;;;;;;;;;;6254811;28;20450;-71
2023/06/08 16:35:30;;;;;;;3.85;3.55;;;;;;;;;;6250689;28;20087;-69
2023/06/08 16:38:31;;;;;;;4.28;3.90;;;;;;;;;;6254139;28;20056;-69
2023/06/08 16:41:31;;;;;;;3.63;3.33;;;;;;;;;;6246419;28;20834;-69
2023/06/08 16:44:31;;;;;;;4.18;3.78;;;;;;;;;;6250509;28;20041;-68
2023/06/08 16:47:32;;;;;;;3.80;3.50;;;;;;;;;;6247563;28;20114;-69
2023/06/08 16:50:32;;;;;;;;;;;;;;;;;;6250301;28;20375;-70
2023/06/08 16:53:32;;;;;;;3.42;3.15;;;;;;;;;;6251223;28;19916;-69
2023/06/08 16:56:33;;;;;;;5.27;3.63;;;;;;;;;;6251022;28;20033;-71
2023/06/08 16:59:33;;;;;;;;;;;;;;;;;;6251580;28;20362;-71
2023/06/08 17:02:33;;;;;;;3.47;3.17;;;;;;;;;;6254790;28;19916;-72
2023/06/08 17:05:34;;;;;;;4.35;3.92;;;;;;;;;;6250676;28;20229;-70
2023/06/08 17:08:35;;;;;;;4.57;4.18;;;;;;;;;;6243231;28;20172;-68
2023/06/08 17:11:36;;;;;;;4.68;4.30;;;;;;;;;;6247726;28;20420;-69
2023/06/08 17:14:36;;;;;;;4.10;3.80;;;;;;;;;;6250728;28;20025;-70
2023/06/08 17:17:36;;;;;;;3.97;3.63;;;;;;;;;;6248128;28;20276;-71
2023/06/08 17:20:36;;;;;;;4.27;3.57;;;;;;;;;;6247676;28;20072;-69
2023/06/08 17:23:38;;;;;;;3.60;3.30;;;;;;;;;;6248635;28;20303;-70
2023/06/08 17:26:39;;;;;;;3.70;3.40;;;;;;;;;;6249821;28;21089;-69
2023/06/08 17:29:39;;;;;;;4.38;4.00;;;;;;;;;;6250103;28;20068;-69
2023/06/08 17:32:40;;;;;;;4.45;4.05;;;;;;;;;;6249279;28;20029;-70
2023/06/08 17:35:40;;;;;;;4.00;3.70;;;;;;;;;;6253908;28;20521;-68
2023/06/08 17:38:40;;;;;;;3.53;3.23;;;;;;;;;;6255644;28;20056;-69
2023/06/08 17:41:41;;;;;;;3.58;3.28;;;;;;;;;;6251364;28;20752;-69
2023/06/08 17:44:41;;;;;;;3.47;3.17;;;;;;;;;;6270366;28;20399;-69
2023/06/08 17:47:41;;;;;;;4.25;2.97;;;;;;;;;;6251968;28;20113;-68
2023/06/08 17:50:42;;;;;;;3.60;3.30;;;;;;;;;;6243918;28;20041;-69
2023/06/08 17:53:42;;;;;;;;;;;;;;;;;;6250225;28;20734;-69
2023/06/08 17:56:42;;;;;;;3.17;2.88;;;;;;;;;;6257212;28;19912;-68
2023/06/08 17:59:42;;;;;;;4.00;3.67;;;;;;;;;;6254798;28;20025;-69
2023/06/08 18:02:43;;;;;;;4.05;3.72;;;;;;;;;;6251259;28;20397;-69
2023/06/08 18:05:43;;;;;;;4.13;3.72;;;;;;;;;;6258691;28;20074;-70
2023/06/08 18:08:50;;;;;;;4.37;3.73;;;;;;;;;;6256984;28;20039;-70